createdAt,value
2019-04-03T00:00:34.512Z,68.11
2019-04-03T00:05:38.167Z,68.09
2019-04-03T00:10:41.386Z,68.25
2019-04-03T00:15:45.276Z,68.67
2019-04-03T00:20:49.277Z,69.02
2019-04-03T00:25:52.756Z,69.65
2019-04-03T00:30:57.547Z,68.09
2019-04-03T00:36:01.625Z,67.55
2019-04-03T00:41:05.174Z,68.29
2019-04-03T00:46:08.687Z,69.23
2019-04-03T00:51:11.566Z,69.49
2019-04-03T00:56:15.236Z,69.56
2019-04-03T01:01:18.766Z,69.37
2019-04-03T01:06:22.641Z,70.42
2019-04-03T01:11:30.146Z,70.68
2019-04-03T01:16:33.019Z,70.55
2019-04-03T01:21:37.651Z,71.20
2019-04-03T01:26:41.256Z,70.95
2019-04-03T01:31:44.771Z,71.07
2019-04-03T01:36:48.713Z,71.34
2019-04-03T01:41:52.090Z,71.74
2019-04-03T01:46:57.341Z,72.31
2019-04-03T01:52:00.994Z,72.48
2019-04-03T01:57:05.987Z,72.84
2019-04-03T02:02:09.427Z,73.18
2019-04-03T02:07:14.896Z,73.23
2019-04-03T02:12:19.790Z,73.60
2019-04-03T02:17:24.055Z,73.61
2019-04-03T02:22:29.316Z,74.31
2019-04-03T02:27:33.308Z,73.79
2019-04-03T02:32:37.260Z,74.21
2019-04-03T02:37:40.759Z,74.14
2019-04-03T02:42:44.003Z,74.25
2019-04-03T02:47:47.180Z,74.65
2019-04-03T02:52:51.145Z,75.31
2019-04-03T02:57:54.371Z,76.27
2019-04-03T03:02:57.069Z,76.93
2019-04-03T03:08:00.878Z,77.65
2019-04-03T03:13:03.850Z,77.41
2019-04-03T03:18:07.358Z,77.65
2019-04-03T03:23:11.626Z,77.92
2019-04-03T03:28:15.621Z,79.21
2019-04-03T03:33:32.729Z,79.24
2019-04-03T03:38:27.510Z,79.83
2019-04-03T03:43:30.157Z,80.60
2019-04-03T03:48:33.360Z,80.61
2019-04-03T03:53:37.922Z,81.26
2019-04-03T03:58:44.794Z,81.39
2019-04-03T04:03:46.820Z,82.23
2019-04-03T04:08:51.065Z,82.14
2019-04-03T04:13:54.710Z,81.58
2019-04-03T04:18:58.307Z,82.50
2019-04-03T04:24:02.577Z,82.37
2019-04-03T04:29:10.308Z,82.01
2019-04-03T04:34:12.281Z,82.00
2019-04-03T04:39:15.529Z,82.97
2019-04-03T04:44:18.750Z,83.27
2019-04-03T04:49:22.670Z,82.81
2019-04-03T04:54:26.184Z,82.36
2019-04-03T04:59:29.357Z,83.22
2019-04-03T05:04:32.839Z,83.23
2019-04-03T05:09:36.326Z,83.37
2019-04-03T05:14:39.324Z,83.02
2019-04-03T05:19:42.489Z,83.01
2019-04-03T05:24:45.973Z,82.91
2019-04-03T05:29:48.975Z,82.85
2019-04-03T05:34:52.462Z,82.17
2019-04-03T05:39:56.108Z,81.77
2019-04-03T05:44:59.582Z,80.96
2019-04-03T05:50:02.875Z,80.81
2019-04-03T05:55:06.014Z,82.88
2019-04-03T06:00:08.754Z,71.83
2019-04-03T06:05:13.171Z,70.75
2019-04-03T06:10:16.678Z,69.87
2019-04-03T06:15:21.688Z,69.94
2019-04-03T06:20:25.475Z,72.32
2019-04-03T06:25:30.037Z,76.70
2019-04-03T06:30:33.542Z,70.42
2019-04-03T06:35:37.149Z,69.11
2019-04-03T06:40:40.355Z,73.06
2019-04-03T06:45:44.530Z,76.67
2019-04-03T06:50:47.036Z,72.12
2019-04-03T06:55:50.221Z,72.46
2019-04-03T07:00:54.766Z,75.84
2019-04-03T07:05:58.556Z,77.75
2019-04-03T07:11:01.057Z,78.67
2019-04-03T07:16:03.900Z,79.79
2019-04-03T07:21:06.740Z,79.81
2019-04-03T07:26:10.548Z,80.71
2019-04-03T07:31:14.351Z,81.26
2019-04-03T07:36:17.856Z,80.96
2019-04-03T07:41:23.290Z,79.85
2019-04-03T07:46:25.789Z,81.11
2019-04-03T07:51:28.612Z,79.53
2019-04-03T07:56:31.492Z,79.54
2019-04-03T08:01:34.760Z,79.16
2019-04-03T08:06:37.390Z,77.63
2019-04-03T08:11:41.040Z,77.62
2019-04-03T08:16:47.480Z,77.17
2019-04-03T08:21:49.363Z,75.92
2019-04-03T08:26:52.730Z,76.79
2019-04-03T08:31:55.838Z,76.65
2019-04-03T08:37:01.386Z,76.28
2019-04-03T08:42:04.582Z,76.03
2019-04-03T08:47:07.935Z,76.13
2019-04-03T08:52:13.882Z,75.77
2019-04-03T08:57:19.998Z,75.09
2019-04-03T09:02:21.579Z,75.22
2019-04-03T09:07:25.545Z,74.66
2019-04-03T09:12:28.951Z,75.62
2019-04-03T09:17:34.124Z,75.18
2019-04-03T09:22:37.913Z,74.81
2019-04-03T09:27:41.395Z,73.46
2019-04-03T09:32:44.307Z,72.70
2019-04-03T09:37:47.859Z,72.63
2019-04-03T09:42:51.588Z,72.23
2019-04-03T09:47:55.709Z,72.51
2019-04-03T09:53:01.641Z,71.99
2019-04-03T09:58:04.296Z,72.53
2019-04-03T10:03:07.615Z,72.10
2019-04-03T10:08:10.885Z,72.61
2019-04-03T10:13:13.813Z,73.36
2019-04-03T10:18:17.430Z,74.80
2019-04-03T10:23:20.074Z,76.70
2019-04-03T10:28:23.187Z,79.58
2019-04-03T10:33:26.505Z,82.62
2019-04-03T10:38:29.465Z,84.78
2019-04-03T10:43:32.747Z,85.96
2019-04-03T10:48:35.803Z,86.67
2019-04-03T10:53:39.896Z,87.95
2019-04-03T10:58:43.808Z,89.08
2019-04-03T11:03:47.165Z,89.01
2019-04-03T11:08:50.183Z,89.79
2019-04-03T11:13:53.480Z,89.77
2019-04-03T11:19:00.014Z,89.75
2019-04-03T11:24:01.335Z,88.91
2019-04-03T11:29:05.099Z,89.12
2019-04-03T11:34:08.622Z,89.67
2019-04-03T11:39:15.152Z,90.46
2019-04-03T11:44:15.907Z,90.65
2019-04-03T11:49:19.993Z,90.72
2019-04-03T11:54:24.322Z,91.62
2019-04-03T11:59:27.568Z,90.97
2019-04-03T12:04:30.710Z,91.21
2019-04-03T12:09:33.880Z,91.99
2019-04-03T12:14:37.464Z,92.65
2019-04-03T12:19:40.627Z,92.82
2019-04-03T12:24:44.059Z,92.58
2019-04-03T12:29:47.049Z,93.01
2019-04-03T12:34:50.962Z,92.71
2019-04-03T12:39:53.503Z,92.74
2019-04-03T12:44:56.687Z,92.92
2019-04-03T12:50:00.198Z,92.79
2019-04-03T12:55:04.234Z,92.80
2019-04-03T13:00:12.768Z,93.65
2019-04-03T13:05:16.751Z,93.22
2019-04-03T13:10:21.269Z,92.95
2019-04-03T13:15:24.864Z,93.50
2019-04-03T13:20:28.020Z,94.07
2019-04-03T13:25:31.413Z,94.27
2019-04-03T13:30:34.789Z,94.32
2019-04-03T13:35:38.307Z,94.79
2019-04-03T13:40:40.795Z,95.41
2019-04-03T13:45:43.614Z,95.64
2019-04-03T13:50:46.727Z,95.10
2019-04-03T13:55:49.985Z,94.96
2019-04-03T14:01:00.914Z,95.50
2019-04-03T14:05:58.274Z,94.81
2019-04-03T14:11:02.717Z,95.21
2019-04-03T14:16:18.975Z,95.25
2019-04-03T14:21:11.135Z,96.22
2019-04-03T14:26:14.698Z,95.58
2019-04-03T14:31:19.077Z,95.11
2019-04-03T14:36:22.456Z,95.13
2019-04-03T14:41:26.352Z,95.42
2019-04-03T14:46:29.342Z,95.68
2019-04-03T14:51:32.709Z,95.54
2019-04-03T14:56:36.039Z,95.26
2019-04-03T15:01:39.734Z,95.31
2019-04-03T15:06:44.217Z,95.14
2019-04-03T15:11:48.198Z,95.22
2019-04-03T15:16:51.107Z,95.22
2019-04-03T15:21:56.690Z,94.46
2019-04-03T15:26:59.067Z,94.44
2019-04-03T15:32:02.265Z,94.51
2019-04-03T15:37:07.523Z,94.32
2019-04-03T15:42:11.062Z,94.44
2019-04-03T15:47:20.495Z,94.26
2019-04-03T15:52:20.668Z,93.70
2019-04-03T15:57:24.564Z,94.17
2019-04-03T16:02:29.092Z,93.96
2019-04-03T16:07:33.556Z,93.88
2019-04-03T16:12:41.489Z,94.81
2019-04-03T16:17:43.201Z,94.21
2019-04-03T16:22:47.075Z,94.01
2019-04-03T16:27:50.966Z,92.76
2019-04-03T16:32:57.042Z,91.96
2019-04-03T16:38:00.284Z,91.72
2019-04-03T16:43:10.369Z,92.50
2019-04-03T16:48:15.910Z,92.86
2019-04-03T16:53:20.433Z,92.34
2019-04-03T16:58:26.458Z,92.20
2019-04-03T17:03:33.244Z,92.27
2019-04-03T17:08:36.509Z,91.48
2019-04-03T17:13:41.091Z,90.89
2019-04-03T17:18:47.132Z,89.70
2019-04-03T17:23:52.401Z,89.23
2019-04-03T17:29:05.202Z,89.01
2019-04-03T17:34:08.394Z,87.89
2019-04-03T17:39:14.537Z,88.13
2019-04-03T17:44:22.184Z,88.70
2019-04-03T17:49:30.526Z,88.26
2019-04-03T17:54:34.013Z,88.36
2019-04-03T17:59:37.289Z,88.69
2019-04-03T18:04:40.532Z,89.12
2019-04-03T18:09:43.366Z,89.39
2019-04-03T18:14:52.160Z,89.26
2019-04-03T18:19:58.289Z,89.09
2019-04-03T18:25:02.114Z,89.02
2019-04-03T18:30:06.752Z,89.08
2019-04-03T18:35:10.972Z,88.96
2019-04-03T18:40:15.329Z,89.14
2019-04-03T18:45:29.971Z,89.08
2019-04-03T18:50:35.136Z,89.32
2019-04-03T18:55:40.262Z,89.52
2019-04-03T19:00:44.263Z,89.45
2019-04-03T19:05:47.732Z,89.20
2019-04-03T19:11:01.531Z,89.04
2019-04-03T19:15:58.323Z,88.71
2019-04-03T19:26:36.205Z,87.67
2019-04-03T19:31:40.784Z,87.43
2019-04-03T19:36:45.291Z,87.20
2019-04-03T19:41:49.121Z,87.26
2019-04-03T19:47:05.141Z,87.15
2019-04-03T19:52:11.617Z,86.76
2019-04-03T19:57:19.817Z,86.36
2019-04-03T20:02:23.513Z,86.49
2019-04-03T20:07:27.332Z,86.79
2019-04-03T20:12:29.979Z,85.94
2019-04-03T20:17:34.747Z,85.72
2019-04-03T20:22:42.462Z,85.99
2019-04-03T20:27:47.622Z,85.95
2019-04-03T20:32:52.435Z,85.93
2019-04-03T20:37:57.019Z,86.07
2019-04-03T20:43:01.311Z,85.84
2019-04-03T20:48:04.444Z,85.91
2019-04-03T20:53:07.478Z,86.00
2019-04-03T20:58:10.606Z,86.34
2019-04-03T21:03:13.589Z,86.27
2019-04-03T21:08:17.161Z,88.95
2019-04-03T21:13:20.446Z,88.91
2019-04-03T21:18:23.867Z,87.62
2019-04-03T21:23:27.529Z,86.97
2019-04-03T21:28:30.876Z,87.14
2019-04-03T21:33:33.995Z,87.12
2019-04-03T21:38:37.691Z,86.83
2019-04-03T21:43:40.857Z,87.15
2019-04-03T21:48:44.753Z,86.71
2019-04-03T21:53:48.608Z,86.84
2019-04-03T21:58:51.721Z,87.04
2019-04-03T22:03:55.193Z,87.24
2019-04-03T22:09:00.457Z,86.83
2019-04-03T22:14:04.365Z,86.85
2019-04-03T22:19:07.592Z,87.06
2019-04-03T22:24:11.156Z,87.25
2019-04-03T22:29:14.649Z,87.30
2019-04-03T22:34:17.262Z,87.28
2019-04-03T22:39:20.464Z,87.21
2019-04-03T22:44:23.877Z,87.24
2019-04-03T22:49:26.679Z,87.48
2019-04-03T22:54:30.024Z,87.58
2019-04-03T22:59:33.613Z,87.59
2019-04-03T23:04:36.622Z,87.80
2019-04-03T23:09:39.924Z,87.80
2019-04-03T23:14:43.441Z,88.24
2019-04-03T23:19:46.356Z,87.82
2019-04-03T23:24:49.885Z,87.66
2019-04-03T23:29:52.829Z,87.81
2019-04-03T23:34:56.381Z,87.67
2019-04-03T23:40:01.026Z,88.11
2019-04-03T23:45:05.694Z,88.19
2019-04-03T23:50:08.220Z,88.41
2019-04-03T23:55:11.499Z,88.07
